createdAt,value
2022-12-05T00:04:22.417Z,3.05
2022-12-05T00:14:23.973Z,3.50
2022-12-05T00:24:25.527Z,3.13
2022-12-05T00:34:27.035Z,3.25
2022-12-05T00:44:28.521Z,3.38
2022-12-05T00:54:30.065Z,3.00
2022-12-05T01:04:31.503Z,3.03
2022-12-05T01:14:32.941Z,3.30
2022-12-05T01:24:34.449Z,3.17
2022-12-05T01:34:35.840Z,2.97
2022-12-05T01:44:37.242Z,2.95
2022-12-05T01:54:39.075Z,2.75
2022-12-05T02:05:05.685Z,2.83
2022-12-05T02:15:25.891Z,2.85
2022-12-05T02:25:44.853Z,2.90
2022-12-05T02:35:55.927Z,2.90
2022-12-05T02:46:00.895Z,2.90
2022-12-05T02:56:03.056Z,2.73
2022-12-05T03:06:16.413Z,2.90
2022-12-05T03:16:28.082Z,2.72
2022-12-05T03:26:51.768Z,2.63
2022-12-05T03:36:53.530Z,3.08
2022-12-05T03:47:07.031Z,3.20
2022-12-05T03:57:24.380Z,2.78
2022-12-05T04:07:27.286Z,2.55
2022-12-05T04:17:50.505Z,2.72
2022-12-05T04:28:21.773Z,2.72
2022-12-05T04:38:29.792Z,2.45
2022-12-05T04:48:31.453Z,2.75
2022-12-05T04:58:32.948Z,2.63
2022-12-05T05:08:34.499Z,2.92
2022-12-05T05:18:35.952Z,3.00
2022-12-05T05:28:37.439Z,2.50
2022-12-05T05:38:40.436Z,2.80
2022-12-05T05:48:41.909Z,2.88
2022-12-05T05:58:43.625Z,2.70
2022-12-05T06:08:45.476Z,2.42
2022-12-05T06:18:46.963Z,2.40
2022-12-05T06:28:49.040Z,2.40
2022-12-05T06:38:50.476Z,2.70
2022-12-05T06:48:57.016Z,2.10
2022-12-05T06:58:58.406Z,2.20
2022-12-05T07:09:00.108Z,2.30
2022-12-05T07:19:01.545Z,2.10
2022-12-05T07:29:02.985Z,1.98
2022-12-05T07:39:04.565Z,1.92
2022-12-05T07:49:07.235Z,1.98
2022-12-05T07:59:08.671Z,1.80
2022-12-05T08:09:11.430Z,2.20
2022-12-05T08:19:13.550Z,1.88
2022-12-05T08:29:15.732Z,2.08
2022-12-05T08:39:19.065Z,1.42
2022-12-05T08:49:20.605Z,1.70
2022-12-05T08:59:22.029Z,1.65
2022-12-05T09:09:23.497Z,1.58
2022-12-05T09:19:27.466Z,1.50
2022-12-05T09:29:31.518Z,1.92
2022-12-05T09:39:33.834Z,1.42
2022-12-05T09:49:37.706Z,1.33
2022-12-05T09:59:39.165Z,1.63
2022-12-05T10:09:59.829Z,1.38
2022-12-05T10:20:06.509Z,1.55
2022-12-05T10:30:24.759Z,1.30
2022-12-05T10:40:39.099Z,1.30
2022-12-05T10:50:42.367Z,1.55
2022-12-05T11:00:49.028Z,1.35
2022-12-05T11:11:04.858Z,1.58
2022-12-05T11:21:12.283Z,1.20
2022-12-05T11:31:16.880Z,1.30
2022-12-05T11:41:37.092Z,1.13
2022-12-05T11:51:41.352Z,1.27
2022-12-05T12:02:12.609Z,1.25
2022-12-05T12:12:36.070Z,1.50
2022-12-05T12:22:52.454Z,1.20
2022-12-05T12:33:00.047Z,1.40
2022-12-05T12:43:55.805Z,1.10
2022-12-05T12:55:01.678Z,1.15
2022-12-05T13:04:57.529Z,1.23
2022-12-05T13:15:03.121Z,1.25
2022-12-05T13:25:04.899Z,1.00
2022-12-05T13:35:12.469Z,0.98
2022-12-05T13:45:19.269Z,1.00
2022-12-05T13:55:38.834Z,1.00
2022-12-05T14:05:52.279Z,0.85
2022-12-05T14:15:54.991Z,0.90
2022-12-05T14:26:13.206Z,0.80
2022-12-05T14:36:17.920Z,1.00
2022-12-05T14:46:29.232Z,0.70
2022-12-05T14:56:32.965Z,1.15
2022-12-05T15:06:37.401Z,1.00
2022-12-05T15:16:42.874Z,1.10
2022-12-05T15:26:53.213Z,1.15
2022-12-05T15:37:21.023Z,0.90
2022-12-05T15:47:24.567Z,1.38
2022-12-05T15:57:32.192Z,1.10
2022-12-05T16:07:34.896Z,1.13
2022-12-05T16:17:46.396Z,1.23
2022-12-05T16:28:09.288Z,1.60
2022-12-05T16:38:16.858Z,1.63
2022-12-05T16:48:26.790Z,1.88
2022-12-05T16:58:30.150Z,1.77
2022-12-05T17:08:31.712Z,2.28
2022-12-05T17:18:33.197Z,2.22
2022-12-05T17:28:34.741Z,2.28
2022-12-05T17:38:36.161Z,2.20
2022-12-05T17:48:37.702Z,2.35
2022-12-05T17:58:39.457Z,2.40
2022-12-05T18:08:43.808Z,2.38
2022-12-05T18:18:46.818Z,2.55
2022-12-05T18:28:48.350Z,2.45
2022-12-05T18:38:53.488Z,2.67
2022-12-05T18:48:58.928Z,2.15
2022-12-05T18:59:10.629Z,2.30
2022-12-05T19:09:15.296Z,2.40
2022-12-05T19:19:17.967Z,2.20
2022-12-05T19:29:19.451Z,2.10
2022-12-05T19:39:26.757Z,2.17
2022-12-05T19:49:28.612Z,2.00
2022-12-05T19:59:30.063Z,2.00
2022-12-05T20:09:31.573Z,1.80
2022-12-05T20:19:33.044Z,1.80
2022-12-05T20:29:35.393Z,2.17
2022-12-05T20:39:36.882Z,2.22
2022-12-05T20:49:38.358Z,1.98
2022-12-05T20:59:39.794Z,1.98
2022-12-05T21:09:41.240Z,2.20
2022-12-05T21:19:43.256Z,2.08
2022-12-05T21:29:44.651Z,1.80
2022-12-05T21:39:46.064Z,1.52
2022-12-05T21:49:47.629Z,1.45
2022-12-05T21:59:49.152Z,1.52
2022-12-05T22:09:50.559Z,1.48
2022-12-05T22:19:52.098Z,1.70
2022-12-05T22:29:53.564Z,1.55
2022-12-05T22:39:54.982Z,1.38
2022-12-05T22:49:56.462Z,1.85
2022-12-05T22:59:58.174Z,1.08
2022-12-05T23:10:00.030Z,1.70
2022-12-05T23:20:02.048Z,1.23
2022-12-05T23:30:05.808Z,1.38
2022-12-05T23:40:08.586Z,1.35
2022-12-05T23:50:10.282Z,1.70
